Time;durP1;ratioP1;P1;durP2;ratioP2;P2;SDS_P1;SDS_P2;PMS_P1;PMS_P2;Temp;Humidity;BMP_temperature;BMP_pressure;BME280_temperature;BME280_humidity;BME280_pressure;Samples;Min_cycle;Max_cycle;Signal;HPM_P1;HPM_P2
2023/03/19 00:00:53;;;;;;;;;4.00;2.00;;;;;13.96;65.33;100553.34;4734938;30;45493;-60
2023/03/19 00:03:18;;;;;;;;;1.25;1.25;;;;;14.17;65.29;100592.47;4728364;29;46178;-59
2023/03/19 00:05:51;;;;;;;;;3.00;3.00;;;;;14.02;65.50;100573.63;4748428;29;45552;-61
2023/03/19 00:08:17;;;;;;;;;2.00;2.00;;;;;14.14;66.18;100581.91;4750920;29;46158;-61
2023/03/19 00:10:43;;;;;;;;;1.50;1.50;;;;;14.15;66.05;100589.94;4751732;29;45434;-61
2023/03/19 00:13:09;;;;;;;;;3.40;3.00;;;;;14.07;65.86;100579.25;4750941;29;45376;-62
2023/03/19 00:15:35;;;;;;;;;3.75;2.50;;;;;13.93;65.76;100567.63;4750670;29;45623;-61
2023/03/19 00:18:00;;;;;;;;;1.75;1.75;;;;;13.94;66.45;100570.13;4751835;29;45814;-61
2023/03/19 00:20:26;;;;;;;;;2.50;2.50;;;;;14.07;65.41;100588.41;4751843;29;45301;-61
2023/03/19 00:22:51;;;;;;;;;2.50;1.00;;;;;14.09;65.51;100590.94;4736137;29;45408;-62
2023/03/19 00:25:17;;;;;;;;;1.25;1.25;;;;;14.09;65.07;100597.28;4751005;29;45385;-61
2023/03/19 00:27:43;;;;;;;;;2.25;1.00;;;;;13.87;65.50;100563.91;4751531;29;45392;-61
2023/03/19 00:30:10;;;;;;;;;2.00;2.00;;;;;13.99;65.55;100591.53;4751943;29;45455;-61
2023/03/19 00:32:36;;;;;;;;;3.60;1.80;;;;;13.85;65.26;100571.56;4751706;29;45410;-60
2023/03/19 00:35:02;;;;;;;;;2.25;2.25;;;;;14.01;65.63;100599.53;4752075;29;45615;-60
2023/03/19 00:37:28;;;;;;;;;3.00;2.40;;;;;14.01;65.44;100605.06;4750455;29;46756;-61
2023/03/19 00:39:53;;;;;;;;;2.00;2.00;;;;;13.92;65.42;100602.66;4751828;29;45334;-61
2023/03/19 00:42:19;;;;;;;;;6.50;5.25;;;;;13.91;65.58;100606.50;4752062;29;45441;-61
2023/03/19 00:44:44;;;;;;;;;3.75;3.75;;;;;13.91;65.67;100605.63;4752020;29;46056;-61
2023/03/19 00:47:10;;;;;;;;;4.00;4.00;;;;;13.94;65.82;100619.81;4751446;29;46287;-61
2023/03/19 00:49:36;;;;;;;;;2.00;2.00;;;;;13.96;65.52;100625.94;4751448;29;45310;-61
2023/03/19 00:52:01;;;;;;;;;3.00;2.00;;;;;13.90;65.28;100621.38;4750191;29;45398;-61
2023/03/19 00:54:27;;;;;;;;;2.75;1.00;;;;;13.87;65.72;100616.31;4752173;29;45376;-61
2023/03/19 00:56:52;;;;;;;;;1.75;1.75;;;;;13.89;65.53;100624.34;4751316;29;46199;-61
2023/03/19 00:59:18;;;;;;;;;3.00;2.00;;;;;13.85;65.34;100618.47;4750603;29;45369;-61
2023/03/19 01:01:43;;;;;;;;;3.25;2.00;;;;;13.88;65.24;100618.00;4732045;29;45345;-61
2023/03/19 01:04:10;;;;;;;;;2.00;2.00;;;;;13.86;65.46;100622.91;4737672;29;45517;-61
2023/03/19 01:06:35;;;;;;;;;2.80;2.80;;;;;13.82;65.91;100625.31;4741784;29;45598;-61
2023/03/19 01:09:01;;;;;;;;;2.25;2.25;;;;;13.83;65.61;100626.16;4733446;30;45459;-61
2023/03/19 01:11:26;;;;;;;;;3.00;2.50;;;;;13.84;66.21;100633.34;4733872;29;45427;-61
2023/03/19 01:13:52;;;;;;;;;1.50;1.00;;;;;13.49;66.16;100578.94;4733493;30;45526;-61
2023/03/19 01:16:17;;;;;;;;;2.25;1.25;;;;;13.85;65.70;100639.69;4745600;29;45801;-61
2023/03/19 01:18:43;;;;;;;;;2.00;2.00;;;;;13.83;65.62;100637.19;4736826;29;45735;-61
2023/03/19 01:21:09;;;;;;;;;3.00;2.25;;;;;13.76;65.58;100623.50;4749030;29;45287;-61
2023/03/19 01:23:35;;;;;;;;;3.60;3.60;;;;;13.82;65.95;100639.09;4748444;29;45491;-60
2023/03/19 01:26:00;;;;;;;;;3.00;3.00;;;;;13.64;65.87;100603.31;4750732;29;45685;-61
2023/03/19 01:28:26;;;;;;;;;2.50;2.00;;;;;13.83;65.77;100632.50;4749950;29;45454;-61
2023/03/19 01:30:51;;;;;;;;;3.50;3.50;;;;;13.83;65.74;100638.00;4749839;29;45325;-61
2023/03/19 01:33:19;;;;;;;;;2.75;2.75;;;;;13.85;65.61;100643.31;4748825;29;45241;-61
2023/03/19 01:35:46;;;;;;;;;3.00;3.00;;;;;13.79;65.32;100641.50;4751001;29;45801;-61
2023/03/19 01:38:12;;;;;;;;;5.80;3.20;;;;;13.76;66.01;100647.50;4751303;29;45399;-61
2023/03/19 01:40:43;;;;;;;;;6.00;2.25;;;;;13.71;65.64;100639.06;4750184;29;45498;-61
2023/03/19 01:43:28;;;;;;;;;2.40;2.00;;;;;13.52;65.97;100609.66;4749838;29;45382;-61
2023/03/19 01:46:16;;;;;;;;;3.20;3.20;;;;;13.41;66.16;100600.22;4749527;29;47600;-60
2023/03/19 01:48:47;;;;;;;;;3.00;2.00;;;;;13.42;66.21;100607.44;4739982;29;45460;-60
2023/03/19 01:51:14;;;;;;;;;5.20;3.00;;;;;13.37;65.93;100599.03;4750731;29;45330;-61
2023/03/19 01:53:41;;;;;;;;;3.60;2.80;;;;;13.53;65.87;100643.56;4749766;29;45581;-61
2023/03/19 01:56:11;;;;;;;;;2.60;2.00;;;;;13.54;66.42;100636.97;4734617;29;46458;-60
2023/03/19 01:58:39;;;;;;;;;3.80;3.40;;;;;13.51;66.71;100643.78;4749428;29;45298;-61
2023/03/19 02:01:04;;;;;;;;;2.20;2.20;;;;;13.52;66.63;100622.59;4749832;29;45409;-60
2023/03/19 02:03:30;;;;;;;;;4.75;4.00;;;;;13.57;66.55;100633.75;4750562;29;45542;-61
2023/03/19 02:05:55;;;;;;;;;2.75;2.75;;;;;13.57;65.87;100628.25;4750547;29;45516;-61
2023/03/19 02:08:21;;;;;;;;;2.75;2.75;;;;;13.44;66.64;100620.13;4749001;29;45425;-60
2023/03/19 02:10:47;;;;;;;;;2.40;2.20;;;;;13.19;66.40;100593.56;4737358;29;45825;-60
2023/03/19 02:13:13;;;;;;;;;3.25;3.00;;;;;13.15;67.46;100621.56;4737853;29;45420;-60
2023/03/19 02:15:38;;;;;;;;;3.00;3.00;;;;;13.06;67.37;100605.56;4753266;29;45527;-60
2023/03/19 02:18:04;;;;;;;;;2.00;2.00;;;;;13.24;67.65;100613.00;4752078;29;45443;-61
2023/03/19 02:20:32;;;;;;;;;3.25;3.00;;;;;13.24;67.54;100615.75;4737242;29;45421;-60
2023/03/19 02:23:00;;;;;;;;;2.80;2.80;;;;;12.94;67.03;100561.44;4753806;29;45387;-60
2023/03/19 02:25:39;;;;;;;;;3.00;3.00;;;;;13.32;67.04;100612.66;4753462;29;45871;-60
2023/03/19 02:28:04;;;;;;;;;3.00;2.00;;;;;12.73;66.95;100506.66;4737962;29;45404;-61
2023/03/19 02:30:31;;;;;;;;;2.75;2.00;;;;;13.41;66.25;100611.25;4737528;29;45407;-60
2023/03/19 02:32:58;;;;;;;;;3.60;3.60;;;;;13.40;66.32;100617.00;4737574;29;45345;-60
2023/03/19 02:35:25;;;;;;;;;3.00;3.00;;;;;13.30;66.77;100601.03;4753343;29;45753;-60
2023/03/19 02:37:50;;;;;;;;;3.00;3.00;;;;;13.32;66.88;100615.41;4751755;29;45448;-60
2023/03/19 02:40:24;;;;;;;;;4.00;3.25;;;;;13.36;66.85;100616.63;4753285;29;45447;-61
2023/03/19 02:42:49;;;;;;;;;7.60;5.20;;;;;13.39;66.72;100632.69;4737659;29;45540;-60
2023/03/19 02:45:15;;;;;;;;;4.25;4.25;;;;;13.18;66.73;100597.38;4753495;29;46452;-60
2023/03/19 02:47:41;;;;;;;;;5.00;3.20;;;;;13.15;66.21;100593.19;4751552;29;45454;-60
2023/03/19 02:50:10;;;;;;;;;6.00;4.00;;;;;13.41;66.29;100636.06;4737225;29;45360;-60
2023/03/19 02:52:36;;;;;;;;;3.60;3.00;;;;;13.17;66.06;100591.03;4730739;29;45349;-60
2023/03/19 02:55:01;;;;;;;;;4.00;3.25;;;;;13.38;66.53;100627.41;4746426;29;45714;-60
2023/03/19 02:57:27;;;;;;;;;5.00;4.00;;;;;13.29;66.56;100622.22;4749153;29;46655;-63
2023/03/19 02:59:52;;;;;;;;;3.50;3.00;;;;;13.34;66.56;100635.31;4748769;29;45457;-61
2023/03/19 03:02:18;;;;;;;;;3.00;3.00;;;;;13.28;66.47;100639.00;4735597;29;45400;-60
2023/03/19 03:04:43;;;;;;;;;2.25;2.25;;;;;13.26;66.91;100635.63;4733920;29;46495;-60
2023/03/19 03:07:09;;;;;;;;;4.25;4.00;;;;;13.23;66.28;100625.09;4733804;30;45237;-60
2023/03/19 03:09:34;;;;;;;;;4.25;4.00;;;;;13.27;66.66;100624.38;4735069;30;45384;-60
2023/03/19 03:12:00;;;;;;;;;2.00;2.00;;;;;13.31;66.83;100641.31;4735220;30;45534;-60
2023/03/19 03:14:25;;;;;;;;;5.75;3.75;;;;;13.25;66.32;100634.78;4735219;29;46923;-60
2023/03/19 03:16:51;;;;;;;;;4.50;4.50;;;;;13.26;66.74;100643.91;4750678;29;45348;-60
2023/03/19 03:19:16;;;;;;;;;4.25;4.25;;;;;13.28;66.49;100647.25;4752862;29;45320;-60
2023/03/19 03:21:42;;;;;;;;;4.50;3.50;;;;;13.20;66.72;100629.16;4752420;29;45259;-60
2023/03/19 03:24:10;;;;;;;;;3.75;3.75;;;;;13.30;66.55;100642.38;4750973;29;45620;-60
2023/03/19 03:26:37;;;;;;;;;3.80;3.80;;;;;13.26;66.24;100632.88;4752561;29;45391;-62
2023/03/19 03:29:04;;;;;;;;;3.60;3.60;;;;;13.28;66.52;100642.59;4752426;29;45426;-60
2023/03/19 03:31:30;;;;;;;;;4.80;3.80;;;;;13.24;66.28;100638.63;4752968;29;45403;-61
2023/03/19 03:33:55;;;;;;;;;3.00;3.00;;;;;13.24;66.25;100643.31;4752152;29;45962;-60
2023/03/19 03:36:21;;;;;;;;;4.50;4.50;;;;;13.20;66.90;100640.19;4752625;29;45383;-60
2023/03/19 03:38:47;;;;;;;;;7.20;3.80;;;;;13.22;66.64;100653.69;4752411;29;45389;-60
2023/03/19 03:41:12;;;;;;;;;4.00;4.00;;;;;13.23;66.63;100650.72;4752890;29;45400;-60
2023/03/19 03:43:38;;;;;;;;;4.75;4.75;;;;;13.22;66.24;100648.19;4752574;29;46356;-60
2023/03/19 03:46:04;;;;;;;;;5.25;5.25;;;;;13.21;66.36;100649.25;4752269;29;45361;-60
2023/03/19 03:48:29;;;;;;;;;7.25;4.00;;;;;13.23;66.42;100647.13;4752323;29;45327;-60
2023/03/19 03:50:55;;;;;;;;;4.50;3.25;;;;;13.22;66.40;100649.03;4752801;29;45441;-61
2023/03/19 03:53:20;;;;;;;;;5.25;5.00;;;;;13.21;66.50;100652.03;4752418;29;46256;-60
2023/03/19 03:55:46;;;;;;;;;5.25;4.00;;;;;13.22;66.85;100654.56;4752548;29;45357;-61
2023/03/19 03:58:11;;;;;;;;;5.00;4.00;;;;;13.24;67.38;100651.56;4751047;29;45386;-61
2023/03/19 04:00:37;;;;;;;;;4.75;4.75;;;;;13.21;68.00;100646.50;4752682;29;45311;-61
2023/03/19 04:03:03;;;;;;;;;6.00;6.00;;;;;13.09;67.72;100643.69;4752372;29;45638;-60
2023/03/19 04:05:28;;;;;;;;;6.00;5.00;;;;;13.04;68.32;100647.16;4752146;29;45223;-61
2023/03/19 04:07:54;;;;;;;;;4.00;3.75;;;;;13.12;68.45;100657.84;4752401;29;45134;-61
2023/03/19 04:10:20;;;;;;;;;6.20;5.00;;;;;13.11;68.46;100653.44;4752466;29;45350;-61
2023/03/19 04:12:46;;;;;;;;;5.00;3.75;;;;;13.09;68.09;100655.56;4751880;29;45555;-60
2023/03/19 04:15:12;;;;;;;;;5.20;4.60;;;;;13.12;67.91;100665.28;4751656;29;45485;-61
2023/03/19 04:17:39;;;;;;;;;6.00;5.00;;;;;13.12;68.36;100671.63;4751925;29;45355;-60
2023/03/19 04:20:06;;;;;;;;;3.60;3.60;;;;;13.10;69.19;100665.53;4751895;29;45621;-60
2023/03/19 04:22:32;;;;;;;;;5.00;5.00;;;;;13.01;69.51;100664.13;4751767;29;47491;-59
2023/03/19 04:24:57;;;;;;;;;5.50;5.00;;;;;13.03;69.94;100673.03;4751725;29;45384;-60
2023/03/19 04:27:23;;;;;;;;;5.25;5.00;;;;;13.02;69.71;100661.16;4751799;29;45705;-60
2023/03/19 04:29:48;;;;;;;;;5.00;4.00;;;;;13.05;70.13;100664.50;4752152;29;45287;-61
2023/03/19 04:32:14;;;;;;;;;3.75;3.25;;;;;13.04;70.16;100663.69;4751401;29;45974;-60
2023/03/19 04:34:40;;;;;;;;;4.25;4.25;;;;;13.05;69.93;100672.78;4751423;29;45495;-60
2023/03/19 04:37:06;;;;;;;;;4.40;4.40;;;;;13.02;69.28;100669.41;4751436;29;45893;-60
2023/03/19 04:39:32;;;;;;;;;5.60;5.60;;;;;12.80;70.68;100638.75;4751309;29;45611;-60
2023/03/19 04:41:58;;;;;;;;;5.00;4.00;;;;;13.01;70.08;100669.66;4751631;29;46172;-60
2023/03/19 04:44:23;;;;;;;;;8.00;5.75;;;;;13.03;69.97;100667.53;4751148;29;45361;-60
2023/03/19 04:46:49;;;;;;;;;4.50;3.75;;;;;12.97;69.98;100669.25;4750041;29;45323;-59
2023/03/19 04:49:14;;;;;;;;;5.75;4.25;;;;;13.02;70.01;100671.31;4751233;29;45642;-61
2023/03/19 04:51:40;;;;;;;;;7.00;5.00;;;;;12.84;69.74;100634.47;4741874;29;46520;-61
2023/03/19 04:54:06;;;;;;;;;5.20;5.20;;;;;13.06;69.66;100668.94;4733403;30;45405;-62
2023/03/19 04:56:32;;;;;;;;;5.00;5.00;;;;;13.02;69.89;100674.06;4732075;30;45238;-61
2023/03/19 04:58:57;;;;;;;;;4.50;4.00;;;;;12.99;70.16;100666.28;4734083;30;45841;-61
2023/03/19 05:01:23;;;;;;;;;6.00;5.00;;;;;13.01;70.23;100677.91;4717361;30;46189;-61
2023/03/19 05:03:48;;;;;;;;;7.00;5.25;;;;;12.97;69.80;100679.47;4746738;29;45423;-61
2023/03/19 05:06:14;;;;;;;;;5.75;5.25;;;;;13.01;69.86;100684.28;4751612;29;45379;-61
2023/03/19 05:08:40;;;;;;;;;9.25;6.50;;;;;13.05;69.68;100692.91;4751410;29;45447;-61
2023/03/19 05:11:05;;;;;;;;;6.00;6.00;;;;;12.78;69.90;100646.41;4751111;29;45964;-61
2023/03/19 05:13:30;;;;;;;;;10.00;7.75;;;;;13.00;69.77;100682.59;4749396;29;45508;-59
2023/03/19 05:15:56;;;;;;;;;6.00;6.00;;;;;12.94;69.78;100686.25;4740530;29;45202;-61
2023/03/19 05:18:22;;;;;;;;;8.50;6.75;;;;;12.92;69.82;100693.06;4742832;29;45523;-61
2023/03/19 05:20:48;;;;;;;;;11.25;6.50;;;;;12.93;69.98;100694.75;4749586;29;46338;-61
2023/03/19 05:23:13;;;;;;;;;10.25;6.75;;;;;12.93;70.39;100694.75;4749978;29;45439;-61
2023/03/19 05:25:39;;;;;;;;;12.00;11.00;;;;;12.95;69.92;100706.38;4735141;29;45337;-61
2023/03/19 05:28:06;;;;;;;;;9.20;7.20;;;;;12.92;70.03;100702.16;4735168;29;45345;-61
2023/03/19 05:30:32;;;;;;;;;10.00;8.80;;;;;12.87;70.36;100700.09;4751178;29;46680;-61
2023/03/19 05:32:58;;;;;;;;;9.75;9.75;;;;;12.86;70.30;100709.44;4751381;29;45413;-61
2023/03/19 05:35:25;;;;;;;;;12.40;10.00;;;;;12.82;70.66;100705.44;4751359;29;45434;-61
2023/03/19 05:37:50;;;;;;;;;9.40;9.40;;;;;12.84;70.62;100714.34;4750068;29;45793;-61
2023/03/19 05:40:16;;;;;;;;;13.25;11.75;;;;;12.88;70.69;100709.22;4749501;29;48409;-59
2023/03/19 05:42:41;;;;;;;;;10.00;10.00;;;;;12.86;70.67;100714.94;4750922;29;45334;-59
2023/03/19 05:45:07;;;;;;;;;14.00;10.75;;;;;12.77;70.05;100694.28;4748682;29;45497;-60
2023/03/19 05:47:33;;;;;;;;;13.80;12.80;;;;;12.68;69.91;100696.50;4733601;29;45607;-61
2023/03/19 05:49:59;;;;;;;;;11.20;9.80;;;;;12.78;70.58;100718.00;4746441;29;46188;-61
2023/03/19 05:52:25;;;;;;;;;11.25;10.25;;;;;12.64;70.17;100686.16;4743277;29;45372;-61
2023/03/19 05:54:50;;;;;;;;;10.50;10.50;;;;;12.68;69.75;100698.38;4740171;29;45272;-61
2023/03/19 05:57:16;;;;;;;;;11.25;10.25;;;;;12.86;70.05;100727.88;4741364;29;45217;-61
2023/03/19 05:59:41;;;;;;;;;11.75;10.00;;;;;12.73;69.94;100728.84;4735730;29;47497;-61
2023/03/19 06:02:07;;;;;;;;;11.25;11.25;;;;;12.71;70.13;100733.75;4732934;30;45341;-60
2023/03/19 06:04:33;;;;;;;;;13.75;12.00;;;;;12.73;70.62;100731.59;4733111;30;45405;-61
2023/03/19 06:06:58;;;;;;;;;11.50;11.00;;;;;12.61;70.57;100735.09;4733405;30;45271;-61
2023/03/19 06:09:24;;;;;;;;;11.00;10.75;;;;;12.62;70.76;100735.94;4734848;29;45952;-61
2023/03/19 06:11:49;;;;;;;;;12.25;11.00;;;;;12.64;70.78;100744.00;4742784;29;45676;-61
2023/03/19 06:14:15;;;;;;;;;12.25;10.75;;;;;12.45;70.71;100711.72;4747728;29;45550;-61
2023/03/19 06:16:40;;;;;;;;;12.50;10.25;;;;;12.69;70.46;100750.50;4738780;29;45456;-61
2023/03/19 06:19:06;;;;;;;;;12.00;10.00;;;;;12.73;70.23;100751.72;4755836;29;47895;-61
2023/03/19 06:21:31;;;;;;;;;14.00;11.50;;;;;12.75;70.47;100745.97;4732936;30;45424;-61
2023/03/19 06:23:57;;;;;;;;;12.75;11.50;;;;;12.75;70.39;100754.25;4731722;30;45448;-61
2023/03/19 06:26:22;;;;;;;;;13.75;11.25;;;;;12.71;70.15;100742.84;4732843;30;45547;-61
2023/03/19 06:28:48;;;;;;;;;10.25;10.25;;;;;12.44;70.55;100721.06;4741434;29;46123;-61
2023/03/19 06:31:15;;;;;;;;;10.75;8.25;;;;;12.61;70.46;100748.84;4749126;29;45953;-61
2023/03/19 06:33:40;;;;;;;;;12.60;10.80;;;;;12.69;70.76;100760.66;4750603;29;45347;-61
2023/03/19 06:36:06;;;;;;;;;13.25;13.25;;;;;12.48;70.57;100743.47;4749359;29;45671;-61
2023/03/19 06:38:32;;;;;;;;;11.50;10.50;;;;;12.70;70.58;100781.63;4732213;30;46144;-61
2023/03/19 06:40:57;;;;;;;;;11.50;11.00;;;;;12.63;71.54;100783.59;4731343;30;45389;-61
2023/03/19 06:43:23;;;;;;;;;12.75;11.75;;;;;12.56;70.94;100770.75;4732789;30;45357;-61
2023/03/19 06:45:48;;;;;;;;;11.25;11.25;;;;;12.58;71.25;100787.00;4732562;30;45460;-60
2023/03/19 06:48:14;;;;;;;;;12.25;10.00;;;;;12.44;71.90;100756.00;4731930;29;46624;-61
2023/03/19 06:50:40;;;;;;;;;12.80;11.40;;;;;12.66;71.47;100784.00;4742053;29;45494;-61
2023/03/19 06:53:06;;;;;;;;;13.75;13.75;;;;;12.67;71.12;100779.31;4747964;29;45392;-59
2023/03/19 06:55:32;;;;;;;;;10.60;10.60;;;;;12.77;70.82;100787.06;4751009;29;45426;-61
2023/03/19 06:57:57;;;;;;;;;12.50;11.75;;;;;12.79;70.80;100798.69;4753222;29;46234;-61
2023/03/19 07:00:23;;;;;;;;;13.75;10.50;;;;;12.76;70.95;100793.66;4752863;29;45412;-61
2023/03/19 07:02:48;;;;;;;;;10.00;10.00;;;;;12.68;71.11;100781.84;4753356;29;45410;-61
2023/03/19 07:05:14;;;;;;;;;12.50;11.50;;;;;12.39;70.97;100734.63;4753369;29;45455;-60
2023/03/19 07:07:40;;;;;;;;;10.50;9.75;;;;;12.58;71.25;100790.63;4737093;29;46474;-61
2023/03/19 07:10:06;;;;;;;;;11.50;10.00;;;;;12.46;71.23;100762.13;4751679;29;45318;-61
2023/03/19 07:12:31;;;;;;;;;15.00;14.40;;;;;12.60;71.79;100776.63;4753037;29;45406;-60
2023/03/19 07:14:57;;;;;;;;;12.50;10.00;;;;;12.72;71.14;100787.75;4751707;29;45270;-61
2023/03/19 07:17:22;;;;;;;;;9.00;9.00;;;;;12.69;70.86;100797.31;4752575;29;45900;-61
2023/03/19 07:19:48;;;;;;;;;9.25;9.25;;;;;12.71;71.08;100783.31;4752621;29;45453;-62
2023/03/19 07:22:14;;;;;;;;;12.00;10.75;;;;;12.85;70.90;100800.53;4752675;29;45370;-61
2023/03/19 07:24:39;;;;;;;;;12.75;12.50;;;;;12.85;70.10;100795.03;4753109;29;45519;-61
2023/03/19 07:27:05;;;;;;;;;12.50;9.25;;;;;12.86;69.87;100805.00;4751227;29;46322;-61
2023/03/19 07:29:30;;;;;;;;;12.50;9.50;;;;;12.70;69.93;100793.47;4752341;29;45450;-61
2023/03/19 07:31:56;;;;;;;;;11.00;10.00;;;;;12.78;70.17;100808.03;4752757;29;45321;-61
2023/03/19 07:34:22;;;;;;;;;9.75;9.75;;;;;12.83;69.85;100800.78;4752893;29;45536;-62
2023/03/19 07:36:47;;;;;;;;;10.25;10.25;;;;;12.85;69.91;100795.03;4752219;29;46667;-61
2023/03/19 07:39:13;;;;;;;;;11.25;10.25;;;;;12.90;69.33;100786.94;4752227;29;45905;-61
2023/03/19 07:41:38;;;;;;;;;12.25;9.50;;;;;12.87;68.99;100777.22;4736329;29;45377;-61
2023/03/19 07:44:04;;;;;;;;;9.00;7.00;;;;;13.00;68.87;100789.19;4752778;29;45403;-61
2023/03/19 07:46:30;;;;;;;;;7.25;6.75;;;;;12.92;68.31;100789.47;4752359;29;45443;-61
2023/03/19 07:48:56;;;;;;;;;9.20;9.20;;;;;12.96;68.42;100793.47;4752144;29;45364;-61
2023/03/19 07:51:21;;;;;;;;;9.00;9.00;;;;;12.93;68.33;100788.41;4752598;29;45339;-60
2023/03/19 07:53:47;;;;;;;;;8.25;8.25;;;;;12.94;68.26;100801.97;4752482;29;45266;-61
2023/03/19 07:56:13;;;;;;;;;10.00;6.00;;;;;12.90;68.61;100797.97;4751274;29;46157;-62
2023/03/19 07:58:38;;;;;;;;;9.75;9.75;;;;;12.81;68.54;100786.38;4752839;29;45282;-61
2023/03/19 08:01:04;;;;;;;;;11.00;9.00;;;;;12.84;68.40;100794.22;4752779;29;45754;-61
2023/03/19 08:03:29;;;;;;;;;4.00;4.00;;;;;12.93;68.84;100799.44;4753082;29;45668;-62
2023/03/19 08:05:55;;;;;;;;;7.50;7.50;;;;;12.84;68.76;100799.72;4750934;29;47284;-60
2023/03/19 08:08:20;;;;;;;;;12.25;9.75;;;;;12.80;68.65;100817.75;4752481;29;45286;-63
2023/03/19 08:10:47;;;;;;;;;6.75;6.75;;;;;12.61;68.47;100776.38;4753384;29;45425;-61
2023/03/19 08:13:13;;;;;;;;;5.80;5.80;;;;;12.79;67.78;100804.19;4751651;29;45425;-63
2023/03/19 08:15:39;;;;;;;;;7.20;7.20;;;;;12.73;68.60;100808.72;4712799;30;45606;-60
2023/03/19 08:18:05;;;;;;;;;7.80;6.40;;;;;12.81;68.41;100813.09;4733813;30;45453;-62
2023/03/19 08:20:30;;;;;;;;;8.40;6.60;;;;;12.77;68.15;100789.81;4751821;29;45452;-62
2023/03/19 08:22:56;;;;;;;;;6.50;6.25;;;;;12.98;68.17;100813.38;4751396;29;45403;-63
2023/03/19 08:25:22;;;;;;;;;7.75;7.00;;;;;12.78;67.76;100763.97;4746688;29;45480;-59
2023/03/19 08:27:48;;;;;;;;;6.00;6.00;;;;;13.29;67.47;100806.06;4747847;29;45947;-61
2023/03/19 08:30:13;;;;;;;;;6.40;5.60;;;;;13.23;66.39;100812.50;4740051;29;45529;-60
2023/03/19 08:32:39;;;;;;;;;5.75;5.00;;;;;13.21;66.48;100809.09;4752866;29;45331;-61
2023/03/19 08:35:05;;;;;;;;;5.25;5.25;;;;;13.11;66.01;100806.88;4751990;29;46346;-61
2023/03/19 08:37:30;;;;;;;;;6.40;5.00;;;;;13.26;65.41;100810.13;4750812;29;45455;-60
2023/03/19 08:39:56;;;;;;;;;4.50;4.50;;;;;13.28;65.75;100819.00;4752380;29;45416;-62
2023/03/19 08:42:21;;;;;;;;;8.50;5.75;;;;;13.39;65.43;100831.19;4752527;29;45356;-60
2023/03/19 08:44:47;;;;;;;;;4.50;3.75;;;;;13.51;65.27;100839.56;4736628;29;45812;-61
2023/03/19 08:47:13;;;;;;;;;6.50;4.25;;;;;13.52;65.20;100840.41;4734224;30;45345;-61
2023/03/19 08:49:38;;;;;;;;;4.75;4.75;;;;;13.51;65.44;100855.28;4734590;30;45392;-62
2023/03/19 08:52:04;;;;;;;;;6.25;6.25;;;;;13.47;65.62;100859.56;4733197;30;45440;-62
2023/03/19 08:54:30;;;;;;;;;10.20;6.20;;;;;13.43;64.79;100870.16;4732781;30;45611;-61
2023/03/19 08:56:56;;;;;;;;;4.00;3.25;;;;;13.19;64.84;100852.59;4734169;30;45317;-59
2023/03/19 08:59:21;;;;;;;;;4.50;4.50;;;;;13.22;65.09;100877.78;4734215;30;45368;-62
2023/03/19 09:01:51;;;;;;;;;10.00;7.50;;;;;13.21;64.93;100881.63;4738772;29;45416;-62
2023/03/19 09:04:17;;;;;;;;;4.40;4.40;;;;;13.28;64.92;100885.16;4720278;29;46324;-60
2023/03/19 09:06:44;;;;;;;;;5.00;5.00;;;;;13.33;64.47;100892.72;4734576;29;45547;-61
2023/03/19 09:09:09;;;;;;;;;7.00;4.60;;;;;13.32;64.41;100899.31;4740753;29;45816;-61
2023/03/19 09:11:35;;;;;;;;;4.25;4.25;;;;;13.29;64.52;100891.53;4743633;29;45459;-61
2023/03/19 09:14:01;;;;;;;;;5.00;5.00;;;;;13.33;64.42;100908.44;4747896;29;45764;-61
2023/03/19 09:16:26;;;;;;;;;5.25;5.25;;;;;13.20;64.31;100909.41;4747537;29;45477;-61
2023/03/19 09:18:52;;;;;;;;;3.75;3.75;;;;;13.01;64.27;100906.56;4722017;29;45478;-61
2023/03/19 09:21:18;;;;;;;;;3.00;3.00;;;;;12.98;64.76;100907.03;4731831;30;45376;-61
2023/03/19 09:23:44;;;;;;;;;6.25;5.00;;;;;12.94;64.59;100912.16;4728649;29;46840;-61
2023/03/19 09:26:10;;;;;;;;;5.00;4.40;;;;;12.78;64.98;100879.63;4723432;29;45794;-61
2023/03/19 09:28:36;;;;;;;;;5.25;4.00;;;;;12.98;65.01;100898.78;4721819;29;45762;-60
2023/03/19 09:31:06;;;;;;;;;7.20;6.20;;;;;12.96;64.65;100907.25;4757849;29;45666;-61
2023/03/19 09:33:31;;;;;;;;;5.40;4.20;;;;;12.94;65.43;100914.06;4729844;29;45991;-61
2023/03/19 09:35:57;;;;;;;;;6.25;5.25;;;;;12.90;64.88;100905.41;4730712;30;45538;-61
2023/03/19 09:38:23;;;;;;;;;3.50;3.50;;;;;12.88;65.26;100902.03;4732514;30;45384;-61
2023/03/19 09:41:00;;;;;;;;;2.25;2.25;;;;;12.93;65.44;100915.13;4733465;30;45420;-62
2023/03/19 09:44:11;;;;;;;;;6.80;3.40;;;;;13.01;65.48;100920.34;4712679;30;45975;-60
2023/03/19 09:46:53;;;;;;;;;7.80;4.20;;;;;13.10;65.17;100913.53;4721562;30;45365;-60
2023/03/19 09:49:25;;;;;;;;;4.40;3.80;;;;;13.21;64.80;100917.44;4697901;30;45563;-62
2023/03/19 09:51:51;;;;;;;;;5.20;4.00;;;;;13.04;65.03;100924.56;4725302;30;45412;-62
2023/03/19 09:54:38;;;;;;;;;3.60;3.60;;;;;12.78;64.97;100891.50;4733555;29;46201;-61
2023/03/19 09:57:04;;;;;;;;;4.20;4.20;;;;;12.96;64.82;100909.19;4747886;29;45876;-61
2023/03/19 09:59:29;;;;;;;;;6.75;5.50;;;;;13.10;64.82;100924.53;4747608;29;45564;-61
2023/03/19 10:02:00;;;;;;;;;5.00;5.00;;;;;13.08;64.38;100923.91;4749401;29;45850;-60
2023/03/19 10:04:41;;;;;;;;;4.20;2.80;;;;;12.92;64.53;100906.00;4747659;29;45577;-62
2023/03/19 10:07:28;;;;;;;;;4.20;1.60;;;;;13.07;65.06;100930.47;4742601;29;45609;-62
2023/03/19 10:10:03;;;;;;;;;2.00;2.00;;;;;13.15;65.54;100932.94;4749062;29;45430;-62
2023/03/19 10:12:42;;;;;;;;;3.00;3.00;;;;;13.17;65.33;100921.72;4733560;29;45435;-61
2023/03/19 10:15:40;;;;;;;;;2.20;2.00;;;;;13.40;65.69;100940.38;4747198;29;46584;-62
2023/03/19 10:18:27;;;;;;;;;3.00;2.00;;;;;13.33;65.45;100911.22;4722994;29;45457;-61
2023/03/19 10:21:07;;;;;;;;;5.60;4.60;;;;;13.32;65.38;100924.13;4754662;29;45498;-61
2023/03/19 10:23:48;;;;;;;;;4.00;4.00;;;;;13.26;66.80;100941.56;4707124;29;46058;-62
2023/03/19 10:26:18;;;;;;;;;6.40;2.20;;;;;13.05;68.54;100953.81;4725077;30;47104;-61
2023/03/19 10:28:46;;;;;;;;;3.60;3.60;;;;;12.96;69.69;100967.03;4721986;29;45986;-59
2023/03/19 10:31:27;;;;;;;;;5.80;5.80;;;;;12.83;70.57;100960.56;4712187;30;45745;-58
2023/03/19 10:33:57;;;;;;;;;5.00;5.00;;;;;12.81;70.26;100968.16;4715172;30;45688;-61
2023/03/19 10:36:26;;;;;;;;;6.00;4.00;;;;;12.74;70.71;100967.38;4716318;30;45438;-59
2023/03/19 10:38:51;;;;;;;;;5.20;4.40;;;;;12.53;70.90;100947.38;4729109;30;46035;-60
2023/03/19 10:41:40;;;;;;;;;6.25;5.75;;;;;12.71;70.79;100970.56;4714380;30;45484;-60
2023/03/19 10:44:09;;;;;;;;;5.40;5.40;;;;;12.54;70.66;100932.53;4741588;29;46477;-59
2023/03/19 10:46:38;;;;;;;;;5.00;5.00;;;;;12.81;70.13;100970.09;4750218;29;45453;-60
2023/03/19 10:49:04;;;;;;;;;5.40;5.40;;;;;12.91;69.79;100975.13;4751010;29;46006;-60
2023/03/19 10:51:29;;;;;;;;;7.25;7.25;;;;;13.07;70.14;100985.59;4749753;29;45490;-60
2023/03/19 10:53:56;;;;;;;;;8.00;7.50;;;;;13.11;68.24;100973.06;4735245;29;45716;-61
2023/03/19 10:56:23;;;;;;;;;12.40;10.40;;;;;13.18;69.30;100972.19;4749064;29;46631;-60
2023/03/19 10:58:55;;;;;;;;;9.20;9.20;;;;;13.22;69.41;100976.16;4752619;29;45391;-61
2023/03/19 11:01:21;;;;;;;;;11.80;10.80;;;;;13.14;69.25;100956.06;4751704;29;45470;-60
2023/03/19 11:03:51;;;;;;;;;15.00;12.00;;;;;13.30;68.73;100964.88;4737048;29;45423;-61
2023/03/19 11:06:34;;;;;;;;;11.20;10.80;;;;;13.33;68.06;100978.19;4750106;29;46476;-62
2023/03/19 11:09:12;;;;;;;;;11.60;10.00;;;;;13.41;68.65;100966.03;4733440;29;45321;-60
2023/03/19 11:11:52;;;;;;;;;10.60;7.80;;;;;13.25;67.87;100968.28;4753040;29;45426;-58
2023/03/19 11:14:24;;;;;;;;;6.20;6.20;;;;;13.23;65.72;100994.41;4717441;29;45910;-58
2023/03/19 11:17:35;;;;;;;;;1.80;1.80;;;;;12.77;63.39;101000.00;4731725;30;46670;-57
2023/03/19 11:20:10;;;;;;;;;1.00;1.00;;;;;12.67;63.65;100999.59;4707580;30;45689;-60
2023/03/19 11:22:36;;;;;;;;;1.40;1.40;;;;;12.46;63.04;100990.59;4732457;29;45448;-61